sensor_id;sensor_type;location;lat;lon;timestamp;P1;durP1;ratioP1;P2;durP2;ratioP2
50104;SDS011;47690;39.202;-77.198;2023-12-29T00:02:07;2.50;;;1.98;;
50104;SDS011;47690;39.202;-77.198;2023-12-29T00:04:36;2.40;;;2.20;;
50104;SDS011;47690;39.202;-77.198;2023-12-29T00:07:04;3.28;;;2.30;;
50104;SDS011;47690;39.202;-77.198;2023-12-29T00:09:35;2.92;;;2.13;;
50104;SDS011;47690;39.202;-77.198;2023-12-29T00:12:13;3.30;;;1.90;;
50104;SDS011;47690;39.202;-77.198;2023-12-29T00:14:44;2.65;;;2.15;;
50104;SDS011;47690;39.202;-77.198;2023-12-29T00:17:13;2.00;;;1.80;;
50104;SDS011;47690;39.202;-77.198;2023-12-29T00:19:52;1.80;;;1.70;;
50104;SDS011;47690;39.202;-77.198;2023-12-29T00:22:21;1.70;;;1.60;;
50104;SDS011;47690;39.202;-77.198;2023-12-29T00:25:04;1.73;;;1.63;;
50104;SDS011;47690;39.202;-77.198;2023-12-29T00:27:36;1.80;;;1.70;;
50104;SDS011;47690;39.202;-77.198;2023-12-29T00:30:09;1.90;;;1.70;;
50104;SDS011;47690;39.202;-77.198;2023-12-29T00:32:41;1.90;;;1.80;;
50104;SDS011;47690;39.202;-77.198;2023-12-29T00:35:09;1.90;;;1.80;;
50104;SDS011;47690;39.202;-77.198;2023-12-29T00:37:49;1.60;;;1.50;;
50104;SDS011;47690;39.202;-77.198;2023-12-29T00:40:18;1.70;;;1.60;;
50104;SDS011;47690;39.202;-77.198;2023-12-29T00:42:51;1.60;;;1.50;;
50104;SDS011;47690;39.202;-77.198;2023-12-29T00:45:30;1.70;;;1.60;;
50104;SDS011;47690;39.202;-77.198;2023-12-29T00:48:02;1.70;;;1.60;;
50104;SDS011;47690;39.202;-77.198;2023-12-29T00:50:37;1.63;;;1.50;;
50104;SDS011;47690;39.202;-77.198;2023-12-29T00:53:14;1.73;;;1.63;;
50104;SDS011;47690;39.202;-77.198;2023-12-29T00:55:44;1.90;;;1.80;;
50104;SDS011;47690;39.202;-77.198;2023-12-29T00:58:19;1.70;;;1.60;;
50104;SDS011;47690;39.202;-77.198;2023-12-29T01:00:49;1.90;;;1.80;;
50104;SDS011;47690;39.202;-77.198;2023-12-29T01:03:17;2.03;;;1.88;;
50104;SDS011;47690;39.202;-77.198;2023-12-29T01:06:06;1.77;;;1.67;;
50104;SDS011;47690;39.202;-77.198;2023-12-29T01:08:36;2.35;;;2.15;;
50104;SDS011;47690;39.202;-77.198;2023-12-29T01:11:07;2.65;;;1.75;;
50104;SDS011;47690;39.202;-77.198;2023-12-29T01:13:38;1.88;;;1.77;;
50104;SDS011;47690;39.202;-77.198;2023-12-29T01:16:09;2.13;;;1.80;;
50104;SDS011;47690;39.202;-77.198;2023-12-29T01:18:40;2.17;;;1.98;;
50104;SDS011;47690;39.202;-77.198;2023-12-29T01:21:08;2.17;;;1.98;;
50104;SDS011;47690;39.202;-77.198;2023-12-29T01:23:36;2.17;;;1.98;;
50104;SDS011;47690;39.202;-77.198;2023-12-29T01:26:05;2.38;;;1.60;;
50104;SDS011;47690;39.202;-77.198;2023-12-29T01:28:35;4.05;;;2.00;;
50104;SDS011;47690;39.202;-77.198;2023-12-29T01:31:08;1.95;;;1.75;;
50104;SDS011;47690;39.202;-77.198;2023-12-29T01:33:40;1.40;;;1.40;;
50104;SDS011;47690;39.202;-77.198;2023-12-29T01:36:08;2.00;;;1.80;;
50104;SDS011;47690;39.202;-77.198;2023-12-29T01:39:02;2.17;;;1.98;;
50104;SDS011;47690;39.202;-77.198;2023-12-29T01:41:31;1.70;;;1.60;;
50104;SDS011;47690;39.202;-77.198;2023-12-29T01:46:33;2.47;;;1.98;;
50104;SDS011;47690;39.202;-77.198;2023-12-29T01:49:03;2.20;;;2.00;;
50104;SDS011;47690;39.202;-77.198;2023-12-29T01:51:37;2.30;;;2.10;;
50104;SDS011;47690;39.202;-77.198;2023-12-29T01:54:05;2.17;;;1.98;;
50104;SDS011;47690;39.202;-77.198;2023-12-29T01:56:34;3.42;;;2.10;;
50104;SDS011;47690;39.202;-77.198;2023-12-29T01:59:02;3.55;;;2.05;;
50104;SDS011;47690;39.202;-77.198;2023-12-29T02:01:44;2.20;;;2.00;;
50104;SDS011;47690;39.202;-77.198;2023-12-29T02:04:15;2.15;;;1.95;;
50104;SDS011;47690;39.202;-77.198;2023-12-29T02:06:48;2.22;;;2.00;;
50104;SDS011;47690;39.202;-77.198;2023-12-29T02:09:17;2.13;;;1.92;;
50104;SDS011;47690;39.202;-77.198;2023-12-29T02:11:48;2.20;;;2.00;;
50104;SDS011;47690;39.202;-77.198;2023-12-29T02:14:17;2.22;;;2.03;;
50104;SDS011;47690;39.202;-77.198;2023-12-29T02:16:52;2.05;;;1.77;;
50104;SDS011;47690;39.202;-77.198;2023-12-29T02:19:54;2.10;;;1.83;;
50104;SDS011;47690;39.202;-77.198;2023-12-29T02:22:44;3.08;;;2.55;;
50104;SDS011;47690;39.202;-77.198;2023-12-29T02:25:17;5.30;;;2.10;;
50104;SDS011;47690;39.202;-77.198;2023-12-29T02:31:15;2.30;;;2.10;;
50104;SDS011;47690;39.202;-77.198;2023-12-29T02:33:51;5.30;;;2.40;;
50104;SDS011;47690;39.202;-77.198;2023-12-29T02:36:22;2.28;;;2.08;;
50104;SDS011;47690;39.202;-77.198;2023-12-29T02:38:52;2.40;;;2.20;;
50104;SDS011;47690;39.202;-77.198;2023-12-29T02:41:20;2.65;;;2.10;;
50104;SDS011;47690;39.202;-77.198;2023-12-29T02:43:49;2.05;;;1.90;;
50104;SDS011;47690;39.202;-77.198;2023-12-29T02:46:36;2.95;;;2.00;;
50104;SDS011;47690;39.202;-77.198;2023-12-29T02:49:05;2.00;;;1.90;;
50104;SDS011;47690;39.202;-77.198;2023-12-29T02:51:40;2.22;;;1.77;;
50104;SDS011;47690;39.202;-77.198;2023-12-29T02:54:09;1.98;;;1.80;;
50104;SDS011;47690;39.202;-77.198;2023-12-29T02:56:37;2.15;;;1.95;;
50104;SDS011;47690;39.202;-77.198;2023-12-29T02:59:05;1.95;;;1.83;;
50104;SDS011;47690;39.202;-77.198;2023-12-29T03:01:39;2.13;;;1.80;;
50104;SDS011;47690;39.202;-77.198;2023-12-29T03:04:08;2.28;;;2.08;;
50104;SDS011;47690;39.202;-77.198;2023-12-29T03:06:37;2.13;;;1.90;;
50104;SDS011;47690;39.202;-77.198;2023-12-29T03:09:07;1.95;;;1.80;;
50104;SDS011;47690;39.202;-77.198;2023-12-29T03:11:35;2.50;;;2.00;;
50104;SDS011;47690;39.202;-77.198;2023-12-29T03:14:04;2.05;;;1.85;;
50104;SDS011;47690;39.202;-77.198;2023-12-29T03:16:37;2.35;;;2.00;;
50104;SDS011;47690;39.202;-77.198;2023-12-29T03:19:06;2.63;;;2.13;;
50104;SDS011;47690;39.202;-77.198;2023-12-29T03:21:35;2.42;;;2.00;;
50104;SDS011;47690;39.202;-77.198;2023-12-29T03:24:03;2.55;;;2.10;;
50104;SDS011;47690;39.202;-77.198;2023-12-29T03:26:32;2.22;;;1.83;;
50104;SDS011;47690;39.202;-77.198;2023-12-29T03:29:00;1.95;;;1.83;;
50104;SDS011;47690;39.202;-77.198;2023-12-29T03:31:30;2.10;;;1.90;;
50104;SDS011;47690;39.202;-77.198;2023-12-29T03:34:01;3.30;;;1.98;;
50104;SDS011;47690;39.202;-77.198;2023-12-29T03:36:29;3.20;;;2.30;;
50104;SDS011;47690;39.202;-77.198;2023-12-29T03:38:59;1.98;;;1.77;;
50104;SDS011;47690;39.202;-77.198;2023-12-29T03:41:30;2.30;;;2.10;;
50104;SDS011;47690;39.202;-77.198;2023-12-29T03:43:59;2.30;;;2.10;;
50104;SDS011;47690;39.202;-77.198;2023-12-29T03:46:29;2.60;;;2.40;;
50104;SDS011;47690;39.202;-77.198;2023-12-29T03:49:02;2.25;;;2.05;;
50104;SDS011;47690;39.202;-77.198;2023-12-29T03:51:36;2.70;;;2.10;;
50104;SDS011;47690;39.202;-77.198;2023-12-29T03:54:06;2.20;;;2.00;;
50104;SDS011;47690;39.202;-77.198;2023-12-29T03:56:34;2.25;;;2.00;;
50104;SDS011;47690;39.202;-77.198;2023-12-29T03:59:03;2.47;;;2.17;;
50104;SDS011;47690;39.202;-77.198;2023-12-29T04:01:33;2.78;;;2.25;;
50104;SDS011;47690;39.202;-77.198;2023-12-29T04:04:02;2.08;;;1.90;;
50104;SDS011;47690;39.202;-77.198;2023-12-29T04:06:32;2.20;;;2.00;;
50104;SDS011;47690;39.202;-77.198;2023-12-29T04:09:01;2.00;;;1.90;;
50104;SDS011;47690;39.202;-77.198;2023-12-29T04:11:30;2.70;;;1.73;;
50104;SDS011;47690;39.202;-77.198;2023-12-29T04:14:01;2.05;;;1.85;;
50104;SDS011;47690;39.202;-77.198;2023-12-29T04:16:30;1.90;;;1.70;;
50104;SDS011;47690;39.202;-77.198;2023-12-29T04:19:03;2.22;;;1.85;;
50104;SDS011;47690;39.202;-77.198;2023-12-29T04:21:33;2.13;;;1.92;;
50104;SDS011;47690;39.202;-77.198;2023-12-29T04:24:03;2.00;;;1.80;;
50104;SDS011;47690;39.202;-77.198;2023-12-29T04:26:36;1.98;;;1.80;;
50104;SDS011;47690;39.202;-77.198;2023-12-29T04:29:06;1.65;;;1.55;;
50104;SDS011;47690;39.202;-77.198;2023-12-29T04:31:38;1.85;;;1.75;;
50104;SDS011;47690;39.202;-77.198;2023-12-29T04:34:08;1.77;;;1.67;;
50104;SDS011;47690;39.202;-77.198;2023-12-29T04:36:37;2.20;;;2.00;;
50104;SDS011;47690;39.202;-77.198;2023-12-29T04:39:05;1.77;;;1.67;;
50104;SDS011;47690;39.202;-77.198;2023-12-29T04:41:37;2.20;;;2.00;;
50104;SDS011;47690;39.202;-77.198;2023-12-29T04:44:06;2.28;;;1.90;;
50104;SDS011;47690;39.202;-77.198;2023-12-29T04:46:35;1.90;;;1.80;;
50104;SDS011;47690;39.202;-77.198;2023-12-29T04:49:04;2.00;;;1.90;;
50104;SDS011;47690;39.202;-77.198;2023-12-29T04:51:35;1.80;;;1.70;;
50104;SDS011;47690;39.202;-77.198;2023-12-29T04:54:03;2.03;;;1.83;;
50104;SDS011;47690;39.202;-77.198;2023-12-29T04:56:31;2.10;;;1.90;;
50104;SDS011;47690;39.202;-77.198;2023-12-29T04:59:00;2.08;;;1.90;;
50104;SDS011;47690;39.202;-77.198;2023-12-29T05:01:29;2.00;;;1.80;;
50104;SDS011;47690;39.202;-77.198;2023-12-29T05:04:00;2.08;;;1.88;;
50104;SDS011;47690;39.202;-77.198;2023-12-29T05:06:30;2.05;;;1.85;;
50104;SDS011;47690;39.202;-77.198;2023-12-29T05:09:10;2.13;;;1.92;;
50104;SDS011;47690;39.202;-77.198;2023-12-29T05:11:39;1.80;;;1.70;;
50104;SDS011;47690;39.202;-77.198;2023-12-29T05:14:08;1.88;;;1.77;;
50104;SDS011;47690;39.202;-77.198;2023-12-29T05:16:36;2.35;;;1.70;;
50104;SDS011;47690;39.202;-77.198;2023-12-29T05:19:05;2.10;;;1.90;;
50104;SDS011;47690;39.202;-77.198;2023-12-29T05:21:34;2.08;;;1.88;;
50104;SDS011;47690;39.202;-77.198;2023-12-29T05:24:03;2.20;;;2.00;;
50104;SDS011;47690;39.202;-77.198;2023-12-29T05:26:33;2.00;;;1.80;;
50104;SDS011;47690;39.202;-77.198;2023-12-29T05:29:02;1.80;;;1.70;;
50104;SDS011;47690;39.202;-77.198;2023-12-29T05:31:30;2.13;;;1.80;;
50104;SDS011;47690;39.202;-77.198;2023-12-29T05:34:04;2.22;;;1.92;;
50104;SDS011;47690;39.202;-77.198;2023-12-29T05:36:35;2.20;;;2.00;;
50104;SDS011;47690;39.202;-77.198;2023-12-29T05:39:06;2.10;;;1.90;;
50104;SDS011;47690;39.202;-77.198;2023-12-29T05:41:34;2.03;;;1.88;;
50104;SDS011;47690;39.202;-77.198;2023-12-29T05:44:07;1.85;;;1.75;;
50104;SDS011;47690;39.202;-77.198;2023-12-29T05:46:35;1.80;;;1.70;;
50104;SDS011;47690;39.202;-77.198;2023-12-29T05:49:06;1.85;;;1.75;;
50104;SDS011;47690;39.202;-77.198;2023-12-29T05:51:35;1.90;;;1.80;;
50104;SDS011;47690;39.202;-77.198;2023-12-29T05:54:04;1.85;;;1.75;;
50104;SDS011;47690;39.202;-77.198;2023-12-29T05:56:33;2.00;;;1.80;;
50104;SDS011;47690;39.202;-77.198;2023-12-29T05:59:01;2.15;;;1.95;;
50104;SDS011;47690;39.202;-77.198;2023-12-29T06:01:30;1.85;;;1.73;;
50104;SDS011;47690;39.202;-77.198;2023-12-29T06:03:59;2.28;;;2.08;;
50104;SDS011;47690;39.202;-77.198;2023-12-29T06:06:33;2.20;;;2.00;;
50104;SDS011;47690;39.202;-77.198;2023-12-29T06:09:01;1.85;;;1.75;;
50104;SDS011;47690;39.202;-77.198;2023-12-29T06:11:32;2.08;;;1.90;;
50104;SDS011;47690;39.202;-77.198;2023-12-29T06:14:01;1.83;;;1.73;;
50104;SDS011;47690;39.202;-77.198;2023-12-29T06:16:31;2.10;;;1.90;;
50104;SDS011;47690;39.202;-77.198;2023-12-29T06:19:01;2.53;;;2.03;;
50104;SDS011;47690;39.202;-77.198;2023-12-29T06:21:30;2.17;;;1.98;;
50104;SDS011;47690;39.202;-77.198;2023-12-29T06:24:01;1.83;;;1.73;;
50104;SDS011;47690;39.202;-77.198;2023-12-29T06:26:30;2.10;;;1.90;;
50104;SDS011;47690;39.202;-77.198;2023-12-29T06:28:59;2.00;;;1.80;;
50104;SDS011;47690;39.202;-77.198;2023-12-29T06:31:29;2.20;;;2.00;;
50104;SDS011;47690;39.202;-77.198;2023-12-29T06:34:01;1.90;;;1.80;;
50104;SDS011;47690;39.202;-77.198;2023-12-29T06:36:31;2.13;;;1.95;;
50104;SDS011;47690;39.202;-77.198;2023-12-29T06:39:01;2.20;;;2.00;;
50104;SDS011;47690;39.202;-77.198;2023-12-29T06:41:29;2.30;;;2.10;;
50104;SDS011;47690;39.202;-77.198;2023-12-29T06:44:01;2.10;;;1.85;;
50104;SDS011;47690;39.202;-77.198;2023-12-29T06:46:30;1.95;;;1.80;;
50104;SDS011;47690;39.202;-77.198;2023-12-29T06:48:59;2.10;;;1.90;;
50104;SDS011;47690;39.202;-77.198;2023-12-29T06:51:35;2.20;;;2.00;;
50104;SDS011;47690;39.202;-77.198;2023-12-29T06:54:03;2.05;;;1.85;;
50104;SDS011;47690;39.202;-77.198;2023-12-29T06:56:32;2.08;;;1.90;;
50104;SDS011;47690;39.202;-77.198;2023-12-29T06:59:01;1.90;;;1.80;;
50104;SDS011;47690;39.202;-77.198;2023-12-29T07:01:38;2.25;;;2.00;;
50104;SDS011;47690;39.202;-77.198;2023-12-29T07:04:08;2.25;;;2.05;;
50104;SDS011;47690;39.202;-77.198;2023-12-29T07:06:38;2.17;;;1.98;;
50104;SDS011;47690;39.202;-77.198;2023-12-29T07:09:07;2.33;;;2.13;;
50104;SDS011;47690;39.202;-77.198;2023-12-29T07:11:36;2.20;;;2.00;;
50104;SDS011;47690;39.202;-77.198;2023-12-29T07:14:06;2.45;;;2.13;;
50104;SDS011;47690;39.202;-77.198;2023-12-29T07:16:34;2.10;;;1.90;;
50104;SDS011;47690;39.202;-77.198;2023-12-29T07:19:02;2.15;;;1.95;;
50104;SDS011;47690;39.202;-77.198;2023-12-29T07:21:31;2.15;;;1.95;;
50104;SDS011;47690;39.202;-77.198;2023-12-29T07:24:04;2.25;;;2.05;;
50104;SDS011;47690;39.202;-77.198;2023-12-29T07:26:33;2.00;;;1.80;;
50104;SDS011;47690;39.202;-77.198;2023-12-29T07:29:05;2.17;;;1.98;;
50104;SDS011;47690;39.202;-77.198;2023-12-29T07:31:37;2.08;;;1.88;;
50104;SDS011;47690;39.202;-77.198;2023-12-29T07:34:07;2.10;;;1.90;;
50104;SDS011;47690;39.202;-77.198;2023-12-29T07:36:39;2.40;;;2.00;;
50104;SDS011;47690;39.202;-77.198;2023-12-29T07:39:08;2.08;;;1.88;;
50104;SDS011;47690;39.202;-77.198;2023-12-29T07:41:40;2.30;;;2.10;;
50104;SDS011;47690;39.202;-77.198;2023-12-29T07:44:10;2.92;;;2.10;;
50104;SDS011;47690;39.202;-77.198;2023-12-29T07:46:40;2.78;;;2.20;;
50104;SDS011;47690;39.202;-77.198;2023-12-29T07:49:08;2.42;;;2.20;;
50104;SDS011;47690;39.202;-77.198;2023-12-29T07:51:40;3.47;;;2.17;;
50104;SDS011;47690;39.202;-77.198;2023-12-29T07:54:10;2.20;;;2.00;;
50104;SDS011;47690;39.202;-77.198;2023-12-29T07:56:38;2.10;;;1.90;;
50104;SDS011;47690;39.202;-77.198;2023-12-29T07:59:06;2.50;;;2.13;;
50104;SDS011;47690;39.202;-77.198;2023-12-29T08:01:35;2.42;;;2.22;;
50104;SDS011;47690;39.202;-77.198;2023-12-29T08:04:04;3.97;;;2.30;;
50104;SDS011;47690;39.202;-77.198;2023-12-29T08:06:37;3.03;;;2.10;;
50104;SDS011;47690;39.202;-77.198;2023-12-29T08:09:07;2.40;;;2.20;;
50104;SDS011;47690;39.202;-77.198;2023-12-29T08:11:36;2.45;;;2.20;;
50104;SDS011;47690;39.202;-77.198;2023-12-29T08:14:04;2.60;;;2.30;;
50104;SDS011;47690;39.202;-77.198;2023-12-29T08:16:40;2.40;;;2.20;;
50104;SDS011;47690;39.202;-77.198;2023-12-29T08:19:10;2.22;;;2.03;;
50104;SDS011;47690;39.202;-77.198;2023-12-29T08:21:40;2.40;;;2.20;;
50104;SDS011;47690;39.202;-77.198;2023-12-29T08:24:10;2.25;;;2.05;;
50104;SDS011;47690;39.202;-77.198;2023-12-29T08:26:45;2.50;;;2.20;;
50104;SDS011;47690;39.202;-77.198;2023-12-29T08:29:19;2.30;;;2.10;;
50104;SDS011;47690;39.202;-77.198;2023-12-29T08:31:47;2.15;;;1.95;;
50104;SDS011;47690;39.202;-77.198;2023-12-29T08:34:19;2.50;;;2.30;;
50104;SDS011;47690;39.202;-77.198;2023-12-29T08:36:49;2.33;;;2.13;;
50104;SDS011;47690;39.202;-77.198;2023-12-29T08:39:18;2.70;;;2.40;;
50104;SDS011;47690;39.202;-77.198;2023-12-29T08:41:48;2.88;;;2.35;;
50104;SDS011;47690;39.202;-77.198;2023-12-29T08:44:20;2.45;;;2.10;;
50104;SDS011;47690;39.202;-77.198;2023-12-29T08:46:49;2.95;;;2.22;;
50104;SDS011;47690;39.202;-77.198;2023-12-29T08:49:17;2.13;;;1.92;;
50104;SDS011;47690;39.202;-77.198;2023-12-29T08:51:46;3.75;;;2.30;;
50104;SDS011;47690;39.202;-77.198;2023-12-29T08:54:15;2.50;;;2.30;;
50104;SDS011;47690;39.202;-77.198;2023-12-29T08:56:43;2.50;;;2.30;;
50104;SDS011;47690;39.202;-77.198;2023-12-29T08:59:16;2.72;;;2.40;;
50104;SDS011;47690;39.202;-77.198;2023-12-29T09:01:45;2.50;;;2.30;;
50104;SDS011;47690;39.202;-77.198;2023-12-29T09:04:17;2.30;;;2.10;;
50104;SDS011;47690;39.202;-77.198;2023-12-29T09:06:46;2.63;;;2.38;;
50104;SDS011;47690;39.202;-77.198;2023-12-29T09:09:14;2.63;;;2.35;;
50104;SDS011;47690;39.202;-77.198;2023-12-29T09:11:43;2.50;;;2.22;;
50104;SDS011;47690;39.202;-77.198;2023-12-29T09:14:15;3.05;;;2.17;;
50104;SDS011;47690;39.202;-77.198;2023-12-29T09:16:43;2.70;;;2.25;;
50104;SDS011;47690;39.202;-77.198;2023-12-29T09:19:15;2.60;;;2.40;;
50104;SDS011;47690;39.202;-77.198;2023-12-29T09:21:59;3.22;;;2.50;;
50104;SDS011;47690;39.202;-77.198;2023-12-29T09:24:29;2.65;;;2.20;;
50104;SDS011;47690;39.202;-77.198;2023-12-29T09:27:09;2.60;;;2.40;;
50104;SDS011;47690;39.202;-77.198;2023-12-29T09:29:37;2.42;;;2.22;;
50104;SDS011;47690;39.202;-77.198;2023-12-29T09:32:06;2.50;;;2.30;;
50104;SDS011;47690;39.202;-77.198;2023-12-29T09:34:35;2.92;;;2.42;;
50104;SDS011;47690;39.202;-77.198;2023-12-29T09:37:03;2.60;;;2.40;;
50104;SDS011;47690;39.202;-77.198;2023-12-29T09:39:31;2.50;;;2.30;;
50104;SDS011;47690;39.202;-77.198;2023-12-29T09:42:01;3.05;;;2.45;;
50104;SDS011;47690;39.202;-77.198;2023-12-29T09:44:36;2.53;;;2.30;;
50104;SDS011;47690;39.202;-77.198;2023-12-29T09:47:05;2.75;;;2.35;;
50104;SDS011;47690;39.202;-77.198;2023-12-29T09:49:38;2.60;;;2.40;;
50104;SDS011;47690;39.202;-77.198;2023-12-29T09:52:09;2.42;;;2.22;;
50104;SDS011;47690;39.202;-77.198;2023-12-29T09:54:41;2.53;;;2.30;;
50104;SDS011;47690;39.202;-77.198;2023-12-29T09:57:10;2.75;;;2.50;;
50104;SDS011;47690;39.202;-77.198;2023-12-29T09:59:39;2.47;;;2.28;;
50104;SDS011;47690;39.202;-77.198;2023-12-29T10:02:17;3.45;;;2.38;;
50104;SDS011;47690;39.202;-77.198;2023-12-29T10:04:45;2.92;;;2.42;;
50104;SDS011;47690;39.202;-77.198;2023-12-29T10:07:24;3.67;;;2.17;;
50104;SDS011;47690;39.202;-77.198;2023-12-29T10:09:55;2.50;;;2.30;;
50104;SDS011;47690;39.202;-77.198;2023-12-29T10:12:29;2.45;;;2.25;;
50104;SDS011;47690;39.202;-77.198;2023-12-29T10:15:06;2.42;;;2.15;;
50104;SDS011;47690;39.202;-77.198;2023-12-29T10:23:19;2.42;;;2.22;;
50104;SDS011;47690;39.202;-77.198;2023-12-29T10:25:51;3.40;;;2.40;;
50104;SDS011;47690;39.202;-77.198;2023-12-29T10:28:20;2.60;;;2.30;;
50104;SDS011;47690;39.202;-77.198;2023-12-29T10:30:49;2.88;;;2.58;;
50104;SDS011;47690;39.202;-77.198;2023-12-29T10:33:19;2.60;;;2.35;;
50104;SDS011;47690;39.202;-77.198;2023-12-29T10:35:58;2.80;;;2.50;;
50104;SDS011;47690;39.202;-77.198;2023-12-29T10:38:38;2.55;;;2.35;;
50104;SDS011;47690;39.202;-77.198;2023-12-29T10:41:14;2.45;;;2.20;;
50104;SDS011;47690;39.202;-77.198;2023-12-29T10:43:44;2.53;;;2.33;;
50104;SDS011;47690;39.202;-77.198;2023-12-29T10:46:24;3.38;;;2.42;;
50104;SDS011;47690;39.202;-77.198;2023-12-29T10:48:55;2.38;;;2.17;;
50104;SDS011;47690;39.202;-77.198;2023-12-29T10:51:36;2.40;;;2.20;;
50104;SDS011;47690;39.202;-77.198;2023-12-29T10:54:05;3.75;;;2.30;;
50104;SDS011;47690;39.202;-77.198;2023-12-29T10:56:34;2.97;;;2.38;;
50104;SDS011;47690;39.202;-77.198;2023-12-29T10:59:04;2.40;;;2.20;;
50104;SDS011;47690;39.202;-77.198;2023-12-29T11:01:34;2.70;;;2.47;;
50104;SDS011;47690;39.202;-77.198;2023-12-29T11:04:05;2.50;;;2.28;;
50104;SDS011;47690;39.202;-77.198;2023-12-29T11:06:43;2.30;;;2.10;;
50104;SDS011;47690;39.202;-77.198;2023-12-29T11:12:04;2.50;;;2.30;;
50104;SDS011;47690;39.202;-77.198;2023-12-29T11:14:36;3.67;;;2.30;;
50104;SDS011;47690;39.202;-77.198;2023-12-29T11:17:13;2.58;;;2.20;;
50104;SDS011;47690;39.202;-77.198;2023-12-29T11:19:45;2.50;;;2.30;;
50104;SDS011;47690;39.202;-77.198;2023-12-29T11:22:16;2.30;;;2.10;;
50104;SDS011;47690;39.202;-77.198;2023-12-29T11:24:47;3.22;;;2.38;;
50104;SDS011;47690;39.202;-77.198;2023-12-29T11:27:16;3.90;;;2.38;;
50104;SDS011;47690;39.202;-77.198;2023-12-29T11:29:45;2.80;;;2.40;;
50104;SDS011;47690;39.202;-77.198;2023-12-29T11:32:17;2.60;;;2.40;;
50104;SDS011;47690;39.202;-77.198;2023-12-29T11:34:57;2.40;;;2.20;;
50104;SDS011;47690;39.202;-77.198;2023-12-29T11:37:42;2.70;;;2.30;;
50104;SDS011;47690;39.202;-77.198;2023-12-29T11:40:20;2.75;;;2.10;;
50104;SDS011;47690;39.202;-77.198;2023-12-29T11:42:56;2.50;;;2.30;;
50104;SDS011;47690;39.202;-77.198;2023-12-29T11:45:33;2.80;;;2.45;;
50104;SDS011;47690;39.202;-77.198;2023-12-29T11:48:05;2.38;;;2.10;;
50104;SDS011;47690;39.202;-77.198;2023-12-29T11:50:35;2.45;;;2.25;;
50104;SDS011;47690;39.202;-77.198;2023-12-29T11:53:07;2.78;;;2.33;;
50104;SDS011;47690;39.202;-77.198;2023-12-29T11:55:43;2.88;;;2.58;;
50104;SDS011;47690;39.202;-77.198;2023-12-29T11:58:28;2.60;;;2.40;;
50104;SDS011;47690;39.202;-77.198;2023-12-29T12:00:57;3.33;;;2.30;;
50104;SDS011;47690;39.202;-77.198;2023-12-29T12:03:34;2.33;;;2.13;;
50104;SDS011;47690;39.202;-77.198;2023-12-29T12:06:04;2.40;;;2.20;;
50104;SDS011;47690;39.202;-77.198;2023-12-29T12:08:33;2.75;;;2.40;;
50104;SDS011;47690;39.202;-77.198;2023-12-29T12:13:57;2.33;;;2.13;;
50104;SDS011;47690;39.202;-77.198;2023-12-29T12:17:02;2.65;;;2.33;;
50104;SDS011;47690;39.202;-77.198;2023-12-29T12:19:26;2.47;;;2.17;;
50104;SDS011;47690;39.202;-77.198;2023-12-29T12:22:02;2.53;;;2.17;;
50104;SDS011;47690;39.202;-77.198;2023-12-29T12:24:34;2.50;;;2.30;;
50104;SDS011;47690;39.202;-77.198;2023-12-29T12:27:09;3.10;;;2.50;;
50104;SDS011;47690;39.202;-77.198;2023-12-29T12:29:39;2.50;;;2.30;;
50104;SDS011;47690;39.202;-77.198;2023-12-29T12:32:08;2.60;;;2.30;;
50104;SDS011;47690;39.202;-77.198;2023-12-29T12:34:41;2.55;;;2.33;;
50104;SDS011;47690;39.202;-77.198;2023-12-29T12:37:09;2.30;;;2.10;;
50104;SDS011;47690;39.202;-77.198;2023-12-29T12:39:39;2.45;;;2.22;;
50104;SDS011;47690;39.202;-77.198;2023-12-29T12:42:09;2.63;;;2.30;;
50104;SDS011;47690;39.202;-77.198;2023-12-29T12:44:38;2.80;;;2.50;;
50104;SDS011;47690;39.202;-77.198;2023-12-29T12:47:10;2.60;;;2.40;;
50104;SDS011;47690;39.202;-77.198;2023-12-29T12:49:46;3.97;;;2.25;;
50104;SDS011;47690;39.202;-77.198;2023-12-29T12:52:15;2.67;;;2.47;;
50104;SDS011;47690;39.202;-77.198;2023-12-29T12:54:45;2.90;;;2.45;;
50104;SDS011;47690;39.202;-77.198;2023-12-29T12:57:19;2.83;;;2.55;;
50104;SDS011;47690;39.202;-77.198;2023-12-29T12:59:48;2.95;;;2.65;;
50104;SDS011;47690;39.202;-77.198;2023-12-29T13:02:19;2.75;;;2.50;;
50104;SDS011;47690;39.202;-77.198;2023-12-29T13:04:50;2.80;;;2.50;;
50104;SDS011;47690;39.202;-77.198;2023-12-29T13:07:20;2.90;;;2.60;;
50104;SDS011;47690;39.202;-77.198;2023-12-29T13:09:49;3.10;;;2.70;;
50104;SDS011;47690;39.202;-77.198;2023-12-29T13:12:21;2.60;;;2.40;;
50104;SDS011;47690;39.202;-77.198;2023-12-29T13:14:50;2.80;;;2.45;;
50104;SDS011;47690;39.202;-77.198;2023-12-29T13:17:21;2.65;;;2.40;;
50104;SDS011;47690;39.202;-77.198;2023-12-29T13:19:56;2.47;;;2.28;;
50104;SDS011;47690;39.202;-77.198;2023-12-29T13:22:40;2.63;;;2.40;;
50104;SDS011;47690;39.202;-77.198;2023-12-29T13:25:09;2.45;;;2.25;;
50104;SDS011;47690;39.202;-77.198;2023-12-29T13:27:42;2.60;;;2.30;;
50104;SDS011;47690;39.202;-77.198;2023-12-29T13:30:14;2.85;;;2.45;;
50104;SDS011;47690;39.202;-77.198;2023-12-29T13:32:45;2.75;;;2.35;;
50104;SDS011;47690;39.202;-77.198;2023-12-29T13:35:18;3.08;;;2.78;;
50104;SDS011;47690;39.202;-77.198;2023-12-29T13:38:02;2.90;;;2.60;;
50104;SDS011;47690;39.202;-77.198;2023-12-29T13:40:45;3.00;;;2.70;;
50104;SDS011;47690;39.202;-77.198;2023-12-29T13:43:21;3.10;;;2.70;;
50104;SDS011;47690;39.202;-77.198;2023-12-29T13:45:54;3.38;;;2.55;;
50104;SDS011;47690;39.202;-77.198;2023-12-29T13:48:25;3.10;;;2.80;;
50104;SDS011;47690;39.202;-77.198;2023-12-29T13:50:59;3.00;;;2.70;;
50104;SDS011;47690;39.202;-77.198;2023-12-29T13:53:29;2.92;;;2.63;;
50104;SDS011;47690;39.202;-77.198;2023-12-29T13:56:09;2.95;;;2.65;;
50104;SDS011;47690;39.202;-77.198;2023-12-29T13:58:38;3.03;;;2.60;;
50104;SDS011;47690;39.202;-77.198;2023-12-29T14:01:08;2.92;;;2.58;;
50104;SDS011;47690;39.202;-77.198;2023-12-29T14:06:49;3.90;;;2.58;;
50104;SDS011;47690;39.202;-77.198;2023-12-29T14:09:21;2.90;;;2.60;;
50104;SDS011;47690;39.202;-77.198;2023-12-29T14:11:50;3.03;;;2.65;;
50104;SDS011;47690;39.202;-77.198;2023-12-29T14:14:26;3.00;;;2.67;;
50104;SDS011;47690;39.202;-77.198;2023-12-29T14:17:09;3.05;;;2.75;;
50104;SDS011;47690;39.202;-77.198;2023-12-29T14:19:39;2.97;;;2.65;;
50104;SDS011;47690;39.202;-77.198;2023-12-29T14:22:09;2.90;;;2.60;;
50104;SDS011;47690;39.202;-77.198;2023-12-29T14:24:39;3.05;;;2.75;;
50104;SDS011;47690;39.202;-77.198;2023-12-29T14:27:07;3.25;;;2.95;;
50104;SDS011;47690;39.202;-77.198;2023-12-29T14:29:42;2.80;;;2.55;;
50104;SDS011;47690;39.202;-77.198;2023-12-29T14:32:12;2.75;;;2.45;;
50104;SDS011;47690;39.202;-77.198;2023-12-29T14:34:42;3.20;;;2.65;;
50104;SDS011;47690;39.202;-77.198;2023-12-29T14:37:14;3.00;;;2.70;;
50104;SDS011;47690;39.202;-77.198;2023-12-29T14:39:46;3.00;;;2.60;;
50104;SDS011;47690;39.202;-77.198;2023-12-29T14:42:19;3.05;;;2.55;;
50104;SDS011;47690;39.202;-77.198;2023-12-29T14:44:51;2.65;;;2.45;;
50104;SDS011;47690;39.202;-77.198;2023-12-29T14:47:38;3.30;;;2.60;;
50104;SDS011;47690;39.202;-77.198;2023-12-29T14:50:07;2.97;;;2.65;;
50104;SDS011;47690;39.202;-77.198;2023-12-29T14:52:35;2.75;;;2.47;;
50104;SDS011;47690;39.202;-77.198;2023-12-29T14:55:04;2.67;;;2.47;;
50104;SDS011;47690;39.202;-77.198;2023-12-29T14:57:32;2.80;;;2.50;;
50104;SDS011;47690;39.202;-77.198;2023-12-29T15:00:05;2.55;;;2.25;;
50104;SDS011;47690;39.202;-77.198;2023-12-29T15:02:34;2.55;;;2.33;;
50104;SDS011;47690;39.202;-77.198;2023-12-29T15:05:03;3.38;;;2.67;;
50104;SDS011;47690;39.202;-77.198;2023-12-29T15:07:31;2.92;;;2.50;;